Time;durP1;ratioP1;P1;durP2;ratioP2;P2;SDS_P1;SDS_P2;PMS_P1;PMS_P2;Temp;Humidity;BMP_temperature;BMP_pressure;BME280_temperature;BME280_humidity;BME280_pressure;Samples;Min_cycle;Max_cycle;Signal;HPM_P1;HPM_P2
2021/04/26 00:00:57;;;;;;;3.03;1.02;;;;;;;6.43;62.24;101827.81;4990405;28;20040;-74
2021/04/26 00:03:23;;;;;;;2.35;0.80;;;;;;;6.39;62.10;101829.47;5000846;28;20116;-74
2021/04/26 00:05:48;;;;;;;2.45;1.10;;;;;;;6.39;61.78;101816.09;4980197;28;20081;-75
2021/04/26 00:08:14;;;;;;;2.22;0.93;;;;;;;6.39;62.71;101819.59;4992566;28;20054;-75
2021/04/26 00:10:39;;;;;;;2.53;1.10;;;;;;;6.26;62.90;101816.91;4987544;28;20639;-74
2021/04/26 00:13:05;;;;;;;1.13;0.88;;;;;;;6.32;63.21;101818.41;4990889;28;20592;-74
2021/04/26 00:15:31;;;;;;;1.83;1.02;;;;;;;6.32;64.25;101813.84;4987359;28;20472;-74
2021/04/26 00:17:57;;;;;;;1.75;1.00;;;;;;;6.38;64.52;101812.66;4991030;28;20113;-75
2021/04/26 00:20:28;;;;;;;1.35;0.90;;;;;;;6.46;63.18;101811.16;4993239;28;20038;-76
2021/04/26 00:22:58;;;;;;;3.13;0.80;;;;;;;6.45;62.07;101809.56;4990328;28;20042;-75
2021/04/26 00:25:24;;;;;;;2.53;1.10;;;;;;;6.30;63.88;101797.31;4994554;28;20380;-75
2021/04/26 00:27:50;;;;;;;2.17;1.10;;;;;;;6.26;63.62;101795.50;4993887;28;20121;-74
2021/04/26 00:30:18;;;;;;;2.00;0.88;;;;;;;6.27;64.49;101797.88;4988704;28;20452;-75
2021/04/26 00:32:45;;;;;;;1.10;0.93;;;;;;;6.32;63.85;101799.69;4983982;28;20056;-75
2021/04/26 00:35:11;;;;;;;1.27;0.90;;;;;;;6.37;62.61;101796.88;4998456;28;20114;-77
2021/04/26 00:37:37;;;;;;;1.00;0.90;;;;;;;6.25;64.37;101796.63;4982195;28;20062;-75
2021/04/26 00:40:05;;;;;;;1.35;0.90;;;;;;;6.40;63.69;101785.59;4987683;28;20073;-74
2021/04/26 00:42:30;;;;;;;2.53;1.02;;;;;;;6.44;63.16;101781.25;5005913;28;20030;-75
2021/04/26 00:44:56;;;;;;;0.80;0.80;;;;;;;6.60;62.70;101779.06;4982767;28;20042;-75
2021/04/26 00:47:21;;;;;;;1.15;0.93;;;;;;;6.52;62.36;101779.75;4996785;28;20030;-76
2021/04/26 00:49:47;;;;;;;4.53;0.95;;;;;;;6.33;63.00;101774.50;5002411;28;20040;-74
2021/04/26 00:52:15;;;;;;;8.00;1.67;;;;;;;6.46;62.37;101779.06;4999384;28;20651;-74
2021/04/26 00:54:42;;;;;;;2.10;1.38;;;;;;;6.27;63.16;101779.16;4989910;28;20038;-75
2021/04/26 00:57:08;;;;;;;2.65;1.02;;;;;;;6.22;64.61;101784.63;4993513;28;20034;-75
2021/04/26 00:59:34;;;;;;;1.65;1.08;;;;;;;6.04;64.94;101777.47;4992623;28;20037;-75
2021/04/26 01:02:01;;;;;;;3.47;0.95;;;;;;;6.09;66.03;101769.38;4988160;28;20396;-74
2021/04/26 01:04:27;;;;;;;1.35;0.85;;;;;;;6.31;63.90;101766.78;4992493;28;20041;-75
2021/04/26 01:06:53;;;;;;;3.17;1.08;;;;;;;6.24;63.69;101770.94;4991510;28;20039;-75
2021/04/26 01:09:20;;;;;;;4.43;1.08;;;;;;;6.05;64.27;101779.06;4987270;28;20120;-75
2021/04/26 01:12:08;;;;;;;0.82;0.82;;;;;;;6.12;64.83;101765.28;4976297;28;20661;-74
2021/04/26 01:14:53;;;;;;;2.15;1.10;;;;;;;5.81;64.89;101773.06;4981614;28;20053;-75
2021/04/26 01:17:27;;;;;;;1.35;0.82;;;;;;;5.78;65.95;101759.50;4984784;28;20586;-75
2021/04/26 01:20:27;;;;;;;1.33;0.90;;;;;;;5.61;66.57;101759.28;4987679;28;20038;-74
2021/04/26 01:23:29;;;;;;;1.70;1.00;;;;;;;5.63;68.16;101765.13;4988326;28;20116;-75
2021/04/26 01:25:55;;;;;;;2.72;1.00;;;;;;;5.25;69.32;101764.41;4997178;28;20037;-75
2021/04/26 01:28:35;;;;;;;1.35;0.82;;;;;;;5.09;70.58;101758.50;4989973;28;20026;-75
2021/04/26 01:31:20;;;;;;;;;;;;;;;5.13;70.39;101770.19;4996292;28;20045;-74
2021/04/26 01:33:50;;;;;;;4.65;1.15;;;;;;;5.31;70.29;101761.38;5001876;28;20396;-75
2021/04/26 01:36:23;;;;;;;3.53;1.00;;;;;;;5.24;70.40;101758.28;4988868;28;20030;-76
2021/04/26 01:38:56;;;;;;;1.50;1.00;;;;;;;5.17;71.17;101757.84;4998502;28;20030;-75
2021/04/26 01:41:27;;;;;;;2.22;0.90;;;;;;;5.03;71.86;101750.88;4995891;28;20023;-74
2021/04/26 01:43:54;;;;;;;3.55;0.90;;;;;;;5.05;71.31;101762.84;5003420;28;20526;-74
2021/04/26 01:46:21;;;;;;;1.10;0.80;;;;;;;5.01;71.99;101753.06;4985776;28;22202;-77
2021/04/26 01:48:50;;;;;;;1.60;0.88;;;;;;;4.99;72.07;101761.34;4988510;28;20036;-74
2021/04/26 01:51:17;;;;;;;1.08;0.82;;;;;;;5.06;71.91;101753.75;4994531;28;20022;-74
2021/04/26 01:53:45;;;;;;;2.55;1.10;;;;;;;4.84;72.90;101760.78;4992479;28;20038;-74
2021/04/26 01:56:13;;;;;;;2.40;1.05;;;;;;;4.85;73.36;101757.81;4990045;28;20530;-75
2021/04/26 01:58:47;;;;;;;2.60;1.00;;;;;;;4.91;73.56;101756.66;4977723;28;20092;-75
2021/04/26 02:01:16;;;;;;;3.08;1.23;;;;;;;4.77;73.11;101753.13;4988538;28;20410;-74
2021/04/26 02:03:47;;;;;;;2.83;0.85;;;;;;;4.68;75.29;101760.19;4990510;28;20426;-75
2021/04/26 02:06:33;;;;;;;1.45;0.90;;;;;;;4.40;76.17;101758.41;4976070;28;20035;-75
2021/04/26 02:09:17;;;;;;;1.17;0.80;;;;;;;4.65;74.56;101758.09;4985736;28;20561;-74
2021/04/26 02:11:44;;;;;;;2.15;0.75;;;;;;;4.55;75.25;101748.34;4993191;28;20041;-74
2021/04/26 02:14:12;;;;;;;1.35;0.77;;;;;;;4.57;75.93;101743.53;4976251;28;20035;-74
2021/04/26 02:16:42;;;;;;;1.63;0.98;;;;;;;4.43;75.85;101753.31;4988570;28;20165;-75
2021/04/26 02:19:08;;;;;;;2.53;0.93;;;;;;;4.48;75.69;101757.78;4995240;28;20684;-74
2021/04/26 02:21:33;;;;;;;1.13;0.85;;;;;;;4.26;75.82;101753.00;4994046;28;20161;-74
2021/04/26 02:24:00;;;;;;;1.60;1.00;;;;;;;4.12;76.57;101745.97;4990801;28;20030;-74
2021/04/26 02:26:27;;;;;;;1.20;1.00;;;;;;;4.25;76.50;101739.94;4991035;28;20033;-74
2021/04/26 02:28:52;;;;;;;1.33;1.00;;;;;;;4.18;76.58;101739.53;4990600;28;20494;-75
2021/04/26 02:31:23;;;;;;;1.35;1.02;;;;;;;4.11;77.21;101741.72;4991106;28;20123;-75
2021/04/26 02:34:01;;;;;;;2.97;0.82;;;;;;;3.93;78.15;101742.47;4979545;28;20089;-75
2021/04/26 02:36:44;;;;;;;1.35;0.80;;;;;;;3.80;78.58;101749.25;5005110;28;20419;-74
2021/04/26 02:39:12;;;;;;;1.95;0.93;;;;;;;3.87;78.40;101739.03;4977743;28;20041;-75
2021/04/26 02:41:41;;;;;;;2.38;1.00;;;;;;;4.00;77.44;101742.91;5005563;28;20045;-74
2021/04/26 02:44:16;;;;;;;2.85;0.73;;;;;;;4.23;76.60;101747.44;4982688;28;20438;-75
2021/04/26 02:46:45;;;;;;;2.72;0.85;;;;;;;4.08;77.36;101743.09;4996982;28;20038;-75
2021/04/26 02:49:14;;;;;;;3.00;1.10;;;;;;;3.93;78.00;101745.91;4976214;28;20030;-74
2021/04/26 02:51:39;;;;;;;2.33;0.82;;;;;;;3.73;78.75;101740.00;4994121;28;20371;-75
2021/04/26 02:54:07;;;;;;;1.20;0.70;;;;;;;3.61;79.66;101751.03;4989300;28;20393;-74
2021/04/26 02:56:36;;;;;;;3.20;0.80;;;;;;;3.46;80.09;101744.00;4988316;28;20430;-74
2021/04/26 02:59:05;;;;;;;1.67;0.80;;;;;;;3.48;79.88;101744.47;4987062;28;20122;-74
2021/04/26 03:01:42;;;;;;;1.45;0.82;;;;;;;3.39;80.53;101746.16;4980355;28;20398;-74
2021/04/26 03:04:21;;;;;;;2.88;0.98;;;;;;;3.45;80.94;101731.75;4990084;28;20089;-74
2021/04/26 03:06:52;;;;;;;1.33;0.90;;;;;;;3.43;80.95;101735.75;4993799;28;20030;-76
2021/04/26 03:09:21;;;;;;;2.28;1.00;;;;;;;3.51;81.19;101738.63;5004828;28;20054;-75
2021/04/26 03:11:52;;;;;;;2.38;0.90;;;;;;;3.28;82.07;101735.88;5025803;28;20036;-76
2021/04/26 03:14:19;;;;;;;3.00;0.95;;;;;;;3.28;81.98;101743.88;5006073;28;20062;-75
2021/04/26 03:16:50;;;;;;;3.47;1.00;;;;;;;3.51;81.38;101741.28;5011279;28;20076;-75
2021/04/26 03:19:19;;;;;;;2.70;1.00;;;;;;;3.51;80.91;101727.16;4991148;28;20094;-75
2021/04/26 03:21:46;;;;;;;3.65;0.90;;;;;;;3.48;80.87;101731.16;4995726;28;20054;-73
2021/04/26 03:24:18;;;;;;;2.13;1.10;;;;;;;3.42;80.32;101734.97;4983704;28;20054;-74
2021/04/26 03:26:48;;;;;;;3.70;1.20;;;;;;;3.43;80.66;101728.56;4987500;28;20042;-74
2021/04/26 03:29:20;;;;;;;5.38;0.98;;;;;;;3.20;81.65;101725.84;5000461;28;20064;-74
2021/04/26 03:31:47;;;;;;;4.03;0.90;;;;;;;3.19;81.44;101730.38;4984785;28;20423;-74
2021/04/26 03:34:17;;;;;;;3.00;1.83;;;;;;;3.13;82.33;101728.84;4967993;28;20112;-74
2021/04/26 03:36:44;;;;;;;6.05;1.10;;;;;;;2.95;82.71;101726.03;4986965;28;20026;-74
2021/04/26 03:39:13;;;;;;;1.48;1.00;;;;;;;2.95;83.31;101726.03;4994581;28;20056;-74
2021/04/26 03:41:39;;;;;;;4.05;0.93;;;;;;;3.19;82.46;101730.38;4987401;28;20121;-75
2021/04/26 03:44:14;;;;;;;4.82;1.30;;;;;;;3.04;82.63;101719.84;4978684;28;20041;-75
2021/04/26 03:47:05;;;;;;;5.00;1.45;;;;;;;2.95;82.89;101716.19;4981363;28;20046;-74
2021/04/26 03:49:53;;;;;;;2.92;1.10;;;;;;;2.86;83.85;101711.75;4983990;28;20038;-74
2021/04/26 03:52:42;;;;;;;3.03;1.00;;;;;;;3.05;83.96;101721.44;4962224;28;20034;-74
2021/04/26 03:55:26;;;;;;;2.80;1.20;;;;;;;3.13;83.10;101720.84;4971657;28;20100;-74
2021/04/26 03:57:55;;;;;;;2.03;1.30;;;;;;;2.97;83.15;101711.41;4982377;28;20439;-74
2021/04/26 04:00:22;;;;;;;1.35;1.05;;;;;;;2.88;84.25;101715.72;4980190;28;20038;-74
2021/04/26 04:02:48;;;;;;;2.78;1.42;;;;;;;2.96;84.23;101711.69;4991549;28;20022;-74
2021/04/26 04:05:17;;;;;;;1.42;0.93;;;;;;;2.83;84.06;101718.41;4974713;28;20042;-74
2021/04/26 04:08:09;;;;;;;3.35;1.38;;;;;;;2.87;84.41;101708.00;4947900;28;20069;-74
2021/04/26 04:11:13;;;;;;;3.33;1.30;;;;;;;2.94;83.47;101709.31;4926931;29;20118;-74
2021/04/26 04:13:57;;;;;;;1.95;1.08;;;;;;;3.01;83.25;101720.41;4932839;29;20058;-74
2021/04/26 04:16:26;;;;;;;2.28;1.08;;;;;;;3.04;82.14;101719.84;4954869;28;20042;-74
2021/04/26 04:18:51;;;;;;;1.40;1.00;;;;;;;2.95;82.32;101713.53;4988565;28;20041;-74
2021/04/26 04:21:17;;;;;;;2.60;1.10;;;;;;;3.06;82.89;101712.38;4987821;28;20035;-74
2021/04/26 04:23:42;;;;;;;2.25;1.17;;;;;;;2.95;83.15;101710.88;4979699;28;20093;-75
2021/04/26 04:26:08;;;;;;;1.67;1.10;;;;;;;3.14;82.96;101703.81;4992936;28;20062;-74
2021/04/26 04:28:41;;;;;;;6.18;1.20;;;;;;;3.37;81.57;101700.41;4987513;28;20559;-74
2021/04/26 04:31:20;;;;;;;2.10;1.08;;;;;;;3.23;82.53;101702.13;4983126;28;20043;-74
2021/04/26 04:34:06;;;;;;;1.20;1.10;;;;;;;3.31;83.29;101704.19;4984359;28;20042;-74
2021/04/26 04:36:57;;;;;;;1.88;1.02;;;;;;;3.11;85.03;101701.72;4997306;28;20042;-74
2021/04/26 04:39:41;;;;;;;2.28;1.05;;;;;;;3.22;84.16;101689.09;4987762;28;20045;-74
2021/04/26 04:42:45;;;;;;;2.15;1.30;;;;;;;3.29;83.94;101693.03;4983303;28;20049;-74
2021/04/26 04:45:11;;;;;;;1.60;1.08;;;;;;;3.39;83.99;101695.59;4982273;28;20499;-75
2021/04/26 04:47:57;;;;;;;4.90;1.38;;;;;;;3.68;82.93;101687.59;4992852;28;20046;-75
2021/04/26 04:50:23;;;;;;;2.38;0.90;;;;;;;3.61;82.95;101692.47;4992578;28;20084;-74
2021/04/26 04:52:50;;;;;;;3.60;1.30;;;;;;;3.95;80.84;101689.69;4987199;28;20095;-74
2021/04/26 04:55:15;;;;;;;3.47;1.10;;;;;;;4.01;80.66;101693.84;4982493;28;20114;-74
2021/04/26 04:57:41;;;;;;;1.83;0.93;;;;;;;3.89;80.58;101696.94;4987840;28;20124;-74
2021/04/26 05:00:08;;;;;;;1.73;1.20;;;;;;;3.88;81.37;101694.56;4986199;28;20033;-74
2021/04/26 05:02:56;;;;;;;1.75;1.15;;;;;;;4.03;82.01;101686.38;4967992;28;20042;-74
2021/04/26 05:05:45;;;;;;;5.72;1.23;;;;;;;4.22;79.11;101682.66;4985983;28;20045;-74
2021/04/26 05:08:29;;;;;;;3.22;0.90;;;;;;;4.27;78.85;101681.81;4986747;28;20380;-75
2021/04/26 05:11:12;;;;;;;2.97;1.27;;;;;;;4.42;79.54;101676.28;4984571;28;20126;-75
2021/04/26 05:13:57;;;;;;;5.28;1.45;;;;;;;4.61;79.79;101674.41;4982711;28;20121;-74
2021/04/26 05:16:26;;;;;;;4.88;1.77;;;;;;;4.49;79.91;101682.84;4987058;28;20031;-75
2021/04/26 05:18:51;;;;;;;2.40;1.50;;;;;;;4.59;80.81;101681.88;4985306;28;20037;-75
2021/04/26 05:21:17;;;;;;;2.78;1.58;;;;;;;4.61;80.64;101679.72;4994296;28;20038;-75
2021/04/26 05:23:42;;;;;;;4.38;1.25;;;;;;;4.85;80.15;101680.44;4991017;28;20034;-75
2021/04/26 05:26:08;;;;;;;2.55;1.10;;;;;;;4.74;76.89;101680.88;4993083;28;20035;-75
2021/04/26 05:28:33;;;;;;;3.05;1.10;;;;;;;4.99;75.50;101683.97;4997771;28;20031;-75
2021/04/26 05:30:59;;;;;;;9.07;1.30;;;;;;;4.98;74.88;101678.88;4993200;28;20038;-75
2021/04/26 05:33:24;;;;;;;1.75;1.10;;;;;;;5.23;73.79;101687.28;4990317;28;20041;-75
2021/04/26 05:35:53;;;;;;;1.70;1.00;;;;;;;5.29;73.50;101688.78;4990416;28;20038;-75
2021/04/26 05:38:20;;;;;;;4.90;1.20;;;;;;;5.22;72.71;101685.72;5005641;22;20091;-72
2021/04/26 05:40:48;;;;;;;1.25;1.00;;;;;;;5.47;70.93;101692.47;5035285;28;20088;-71
2021/04/26 05:43:16;;;;;;;2.83;1.17;;;;;;;5.53;71.07;101692.06;5034265;28;20704;-71
2021/04/26 05:45:44;;;;;;;2.08;1.25;;;;;;;5.57;69.43;101691.50;5021048;28;20484;-72
2021/04/26 05:48:16;;;;;;;2.92;1.10;;;;;;;5.31;69.29;101686.59;5024009;28;20057;-73
2021/04/26 05:50:41;;;;;;;3.75;1.23;;;;;;;5.33;69.08;101692.44;5006552;28;20045;-72
2021/04/26 05:53:06;;;;;;;1.95;1.17;;;;;;;5.50;68.66;101690.00;4998371;28;20164;-72
2021/04/26 05:55:32;;;;;;;1.67;1.10;;;;;;;5.77;68.69;101694.56;4998526;28;20061;-72
2021/04/26 05:57:58;;;;;;;3.08;1.45;;;;;;;5.93;66.35;101685.22;5002770;28;20037;-73
2021/04/26 06:00:24;;;;;;;3.58;0.98;;;;;;;6.30;64.65;101695.66;5007263;28;20052;-72
2021/04/26 06:02:50;;;;;;;4.03;1.23;;;;;;;6.07;63.63;101698.56;5018192;28;20038;-73
2021/04/26 06:05:15;;;;;;;3.78;1.08;;;;;;;5.86;66.05;101681.34;4997023;28;20105;-72
2021/04/26 06:07:41;;;;;;;1.63;1.17;;;;;;;6.11;64.74;101686.19;5000167;28;20127;-72
2021/04/26 06:10:08;;;;;;;3.05;1.10;;;;;;;6.10;63.71;101681.91;4995356;28;20085;-72
2021/04/26 06:12:33;;;;;;;2.20;1.30;;;;;;;6.50;63.57;101681.06;5009451;28;20112;-72
2021/04/26 06:14:59;;;;;;;1.77;1.00;;;;;;;6.54;62.71;101686.59;4996091;28;20109;-71
2021/04/26 06:17:25;;;;;;;2.15;1.17;;;;;;;6.93;62.62;101684.09;4997256;28;20035;-71
2021/04/26 06:19:50;;;;;;;3.38;1.15;;;;;;;7.10;61.97;101686.88;5005254;28;20034;-72
2021/04/26 06:22:16;;;;;;;7.63;1.25;;;;;;;6.82;60.44;101680.06;4997465;28;20030;-72
2021/04/26 06:24:42;;;;;;;3.65;1.02;;;;;;;6.70;62.13;101683.25;4999756;28;20038;-71
2021/04/26 06:27:07;;;;;;;1.10;0.90;;;;;;;6.83;61.40;101677.06;4992622;28;20030;-72
2021/04/26 06:29:33;;;;;;;2.22;1.00;;;;;;;7.34;60.70;101683.88;4992809;28;20038;-72
2021/04/26 06:31:59;;;;;;;6.30;1.20;;;;;;;7.02;59.60;101680.38;4998244;28;20034;-72
2021/04/26 06:34:25;;;;;;;6.13;0.93;;;;;;;7.44;59.25;101678.22;5005256;28;20038;-71
2021/04/26 06:36:50;;;;;;;3.00;1.00;;;;;;;7.38;60.01;101674.09;5011108;28;20036;-72
2021/04/26 06:39:15;;;;;;;2.70;1.63;;;;;;;7.27;58.70;101676.25;5006889;28;20061;-72
2021/04/26 06:41:41;;;;;;;2.13;0.80;;;;;;;7.79;58.36;101664.66;4995152;28;20038;-72
2021/04/26 06:44:06;;;;;;;2.28;0.90;;;;;;;7.90;57.91;101676.69;4994503;28;20037;-72
2021/04/26 06:46:32;;;;;;;2.38;0.98;;;;;;;8.08;55.85;101666.78;4983841;28;22452;-73
2021/04/26 06:48:59;;;;;;;2.55;0.80;;;;;;;8.09;54.17;101671.06;4997330;28;20107;-71
2021/04/26 06:51:24;;;;;;;2.00;0.93;;;;;;;8.28;53.68;101668.13;4997031;28;20045;-71
2021/04/26 06:53:50;;;;;;;2.17;0.80;;;;;;;7.83;54.34;101668.31;4995229;28;20502;-71
2021/04/26 06:56:15;;;;;;;0.77;0.70;;;;;;;8.26;54.68;101673.81;5001489;28;20513;-71
2021/04/26 06:58:41;;;;;;;1.63;1.10;;;;;;;8.12;53.19;101673.13;5002825;28;20486;-71
2021/04/26 07:01:06;;;;;;;3.08;0.75;;;;;;;8.18;51.59;101666.50;4995536;28;20100;-71
2021/04/26 07:03:32;;;;;;;3.13;1.30;;;;;;;8.01;50.68;101669.91;4993580;28;20120;-71
2021/04/26 07:05:57;;;;;;;2.80;0.68;;;;;;;8.09;50.97;101669.16;4993668;28;20156;-71
2021/04/26 07:08:23;;;;;;;0.70;0.55;;;;;;;8.30;51.07;101671.28;4991488;28;20058;-71
2021/04/26 07:10:49;;;;;;;2.63;0.80;;;;;;;8.67;51.31;101660.72;4994908;28;20068;-71
2021/04/26 07:13:16;;;;;;;4.10;1.10;;;;;;;8.53;49.75;101654.72;4995076;28;20061;-72
2021/04/26 07:15:41;;;;;;;1.80;0.93;;;;;;;8.69;49.07;101653.13;4989825;28;20076;-71
2021/04/26 07:18:07;;;;;;;1.27;0.80;;;;;;;9.16;49.65;101645.94;5002012;28;20046;-71
2021/04/26 07:20:32;;;;;;;1.88;0.82;;;;;;;9.21;49.04;101645.78;4973545;28;20037;-72
2021/04/26 07:22:58;;;;;;;3.38;1.00;;;;;;;9.20;47.23;101646.88;4999466;28;20056;-73
2021/04/26 07:25:23;;;;;;;2.55;1.00;;;;;;;9.55;47.59;101648.34;4994841;28;20061;-72
2021/04/26 07:27:49;;;;;;;2.55;0.95;;;;;;;9.66;46.49;101652.25;4998263;28;20038;-72
2021/04/26 07:30:15;;;;;;;1.45;0.80;;;;;;;9.14;47.35;101656.22;4989769;28;20042;-72
2021/04/26 07:32:41;;;;;;;3.33;1.10;;;;;;;9.30;47.25;101651.91;4994064;28;20064;-71
2021/04/26 07:35:10;;;;;;;1.98;0.80;;;;;;;9.52;48.23;101648.22;5001580;28;20065;-72
2021/04/26 07:37:37;;;;;;;2.90;1.00;;;;;;;9.74;46.98;101650.63;4996889;28;20052;-71
2021/04/26 07:40:04;;;;;;;3.10;1.13;;;;;;;9.72;46.30;101648.25;4988748;28;20125;-72
2021/04/26 07:42:30;;;;;;;2.88;1.10;;;;;;;9.16;47.04;101648.63;5000981;28;20088;-71
2021/04/26 07:44:55;;;;;;;5.10;1.15;;;;;;;9.40;47.15;101648.09;4995965;28;20030;-72
2021/04/26 07:47:21;;;;;;;2.35;1.27;;;;;;;9.17;47.00;101650.22;4996925;28;20091;-71
2021/04/26 07:49:46;;;;;;;1.20;1.10;;;;;;;9.10;47.87;101653.38;4993510;28;20439;-73
2021/04/26 07:52:12;;;;;;;2.80;1.25;;;;;;;9.61;47.81;101651.63;5004620;28;20034;-72
2021/04/26 07:54:37;;;;;;;2.90;1.52;;;;;;;10.16;46.19;101646.16;4994392;28;20388;-72
2021/04/26 07:57:03;;;;;;;2.97;1.35;;;;;;;10.17;46.11;101648.50;4991117;28;20601;-72
2021/04/26 07:59:30;;;;;;;2.47;1.10;;;;;;;10.37;44.98;101653.13;4995573;28;20371;-72
2021/04/26 08:01:55;;;;;;;1.95;1.10;;;;;;;10.36;44.24;101654.22;4989361;28;20042;-72
2021/04/26 08:04:21;;;;;;;1.70;1.10;;;;;;;9.97;43.80;101643.84;4993888;28;20030;-73
2021/04/26 08:06:46;;;;;;;4.55;1.33;;;;;;;10.38;44.80;101640.44;4991572;28;20087;-73
2021/04/26 08:09:12;;;;;;;3.38;0.90;;;;;;;11.02;43.98;101641.59;4987301;28;20402;-72
2021/04/26 08:11:38;;;;;;;3.33;0.90;;;;;;;11.29;43.37;101645.59;4997680;28;20034;-73
2021/04/26 08:14:03;;;;;;;1.63;1.13;;;;;;;10.59;43.16;101639.31;4993682;28;20026;-73
2021/04/26 08:16:29;;;;;;;4.97;0.80;;;;;;;10.76;42.81;101639.16;4993077;28;20058;-73
2021/04/26 08:18:55;;;;;;;0.77;0.68;;;;;;;10.86;42.08;101633.34;5007635;28;20037;-73
2021/04/26 08:21:21;;;;;;;2.80;0.68;;;;;;;10.20;43.13;101630.94;4993481;28;20049;-72
2021/04/26 08:23:47;;;;;;;6.47;1.40;;;;;;;10.66;43.31;101622.63;4997272;28;21872;-73
2021/04/26 08:26:12;;;;;;;0.93;0.82;;;;;;;11.06;42.72;101630.94;4991918;28;20133;-73
2021/04/26 08:28:38;;;;;;;2.67;0.88;;;;;;;11.38;43.36;101628.19;5001299;28;20048;-73
2021/04/26 08:31:07;;;;;;;4.10;0.90;;;;;;;11.46;42.32;101632.69;4991439;28;20046;-73
2021/04/26 08:33:39;;;;;;;1.75;0.90;;;;;;;11.59;42.17;101634.25;4993804;28;20054;-73
2021/04/26 08:36:04;;;;;;;3.03;1.08;;;;;;;10.94;43.15;101630.94;4991152;28;20038;-73
2021/04/26 08:38:30;;;;;;;1.48;0.63;;;;;;;11.22;43.03;101635.38;4991961;28;20030;-73
2021/04/26 08:40:55;;;;;;;2.65;0.70;;;;;;;11.40;42.53;101628.63;4990484;28;20038;-73
2021/04/26 08:43:21;;;;;;;4.57;0.82;;;;;;;11.57;41.42;101624.94;4995449;28;20557;-74
2021/04/26 08:45:47;;;;;;;2.15;0.80;;;;;;;11.22;43.19;101618.41;5002307;28;20117;-73
2021/04/26 08:48:12;;;;;;;3.00;0.88;;;;;;;11.76;43.25;101617.09;4988233;28;20037;-73
2021/04/26 08:50:38;;;;;;;2.65;0.70;;;;;;;11.76;42.09;101625.19;4987663;28;20038;-73
2021/04/26 08:53:04;;;;;;;1.13;0.68;;;;;;;12.36;42.21;101629.69;4990086;28;20034;-73
2021/04/26 08:55:29;;;;;;;1.27;0.60;;;;;;;12.16;41.01;101620.63;4998664;28;20033;-73
2021/04/26 08:57:55;;;;;;;1.35;0.80;;;;;;;12.12;41.24;101621.66;5003167;28;20050;-73
2021/04/26 09:00:22;;;;;;;1.88;0.73;;;;;;;13.17;40.47;101608.41;4996724;28;20050;-73
2021/04/26 09:02:53;;;;;;;2.65;0.80;;;;;;;12.65;40.52;101605.84;4996892;28;20041;-72
2021/04/26 09:05:24;;;;;;;0.75;0.57;;;;;;;13.17;39.64;101599.50;4993902;28;20029;-70
2021/04/26 09:07:52;;;;;;;1.13;0.70;;;;;;;13.37;39.71;101601.97;4992044;28;20030;-70
2021/04/26 09:10:45;;;;;;;2.05;0.80;;;;;;;12.89;39.76;101601.44;5007987;28;20053;-71
2021/04/26 09:13:31;;;;;;;1.05;0.70;;;;;;;13.71;37.90;101600.41;4996468;28;20042;-71
2021/04/26 09:15:57;;;;;;;1.15;0.60;;;;;;;13.92;38.50;101606.31;4996894;28;20038;-71
2021/04/26 09:18:41;;;;;;;2.03;0.60;;;;;;;14.07;39.36;101591.16;5008044;28;20379;-72
2021/04/26 09:21:19;;;;;;;1.90;0.80;;;;;;;13.90;36.75;101588.88;5008737;28;20498;-71
2021/04/26 09:23:46;;;;;;;3.42;0.80;;;;;;;13.81;36.73;101591.75;5005167;28;20096;-71
2021/04/26 09:26:28;;;;;;;1.95;1.00;;;;;;;14.19;38.69;101591.81;5008934;28;20459;-71
2021/04/26 09:29:12;;;;;;;3.25;0.98;;;;;;;14.84;37.73;101579.16;5006919;28;20477;-72
2021/04/26 09:31:38;;;;;;;1.10;0.70;;;;;;;14.93;36.54;101582.44;5006018;28;20465;-72
2021/04/26 09:34:04;;;;;;;1.42;0.73;;;;;;;15.58;36.90;101580.41;5004471;28;20037;-72
2021/04/26 09:36:33;;;;;;;2.22;0.80;;;;;;;15.51;34.82;101577.59;5003855;28;20037;-71
2021/04/26 09:39:05;;;;;;;4.10;1.58;;;;;;;15.31;36.03;101570.66;4997345;28;20176;-72
2021/04/26 09:41:31;;;;;;;2.22;0.80;;;;;;;15.87;35.73;101571.50;5004144;28;20517;-71
2021/04/26 09:43:59;;;;;;;3.63;0.70;;;;;;;16.09;35.01;101573.38;4999960;28;20045;-72
2021/04/26 09:46:37;;;;;;;1.88;0.77;;;;;;;15.47;33.56;101560.47;4995553;28;20117;-72
2021/04/26 09:49:23;;;;;;;1.13;0.88;;;;;;;14.16;34.08;101557.31;5001799;28;20046;-72
2021/04/26 09:51:53;;;;;;;1.13;0.70;;;;;;;15.39;35.41;101553.31;5006636;28;20026;-72
2021/04/26 09:54:40;;;;;;;2.47;0.70;;;;;;;15.58;35.42;101550.53;5004203;28;20120;-72
2021/04/26 09:57:06;;;;;;;2.15;0.93;;;;;;;16.05;34.50;101550.81;5005740;28;20089;-72
2021/04/26 09:59:32;;;;;;;3.80;1.17;;;;;;;15.94;33.09;101552.59;5003004;28;20113;-72
2021/04/26 10:01:59;;;;;;;2.70;0.80;;;;;;;15.80;33.01;101565.19;5006726;28;20046;-72
2021/04/26 10:04:26;;;;;;;2.45;0.80;;;;;;;15.48;34.14;101551.19;5004615;28;20038;-71
2021/04/26 10:06:52;;;;;;;1.42;0.77;;;;;;;15.14;34.45;101552.94;5007325;28;20034;-72
2021/04/26 10:09:18;;;;;;;2.65;1.00;;;;;;;14.42;35.86;101541.19;5002402;28;20045;-72
2021/04/26 10:11:44;;;;;;;1.63;0.80;;;;;;;14.29;36.80;101539.78;5000314;28;20054;-72
2021/04/26 10:14:17;;;;;;;2.25;0.98;;;;;;;14.38;37.76;101537.63;5002363;28;20033;-72
2021/04/26 10:17:01;;;;;;;1.02;0.80;;;;;;;14.55;37.07;101538.34;5001843;28;20049;-72
2021/04/26 10:19:34;;;;;;;2.08;1.00;;;;;;;15.06;35.85;101547.78;5006295;28;20037;-71
2021/04/26 10:22:01;;;;;;;1.58;1.02;;;;;;;14.98;34.82;101535.25;4994049;28;20186;-72
2021/04/26 10:24:28;;;;;;;4.88;1.00;;;;;;;14.64;35.31;101541.59;4991605;28;20042;-72
2021/04/26 10:27:08;;;;;;;1.05;0.73;;;;;;;14.51;35.29;101542.91;5002885;28;20053;-72
2021/04/26 10:29:39;;;;;;;2.38;0.73;;;;;;;13.86;35.43;101533.84;5001213;28;20525;-72
2021/04/26 10:32:13;;;;;;;1.10;0.90;;;;;;;14.07;36.22;101537.00;4999367;28;20048;-72
2021/04/26 10:34:44;;;;;;;1.50;0.80;;;;;;;13.61;36.96;101537.94;5000755;28;20461;-72
2021/04/26 10:37:15;;;;;;;5.53;1.17;;;;;;;13.77;37.10;101528.63;4994106;28;20041;-72
2021/04/26 10:39:56;;;;;;;3.85;1.08;;;;;;;13.16;38.08;101528.38;4996521;28;20070;-72
2021/04/26 10:42:48;;;;;;;1.70;1.05;;;;;;;13.20;37.52;101521.13;4992124;28;20566;-72
2021/04/26 10:45:13;;;;;;;1.75;0.90;;;;;;;12.93;39.05;101523.94;4997882;28;20109;-72
2021/04/26 10:47:41;;;;;;;1.13;1.02;;;;;;;12.93;38.46;101518.53;5001838;28;20125;-72
2021/04/26 10:50:06;;;;;;;3.30;1.10;;;;;;;13.37;38.42;101515.38;4991936;28;20042;-72
2021/04/26 10:52:36;;;;;;;2.75;0.80;;;;;;;13.47;37.57;101516.75;5003194;28;20033;-72
2021/04/26 10:55:34;;;;;;;2.53;1.00;;;;;;;13.36;36.56;101510.28;5004593;28;20117;-71
2021/04/26 10:58:03;;;;;;;2.25;1.20;;;;;;;13.16;38.14;101506.75;5002926;28;20619;-71
2021/04/26 11:00:31;;;;;;;1.20;0.90;;;;;;;13.23;36.28;101504.22;5005305;28;20045;-72
2021/04/26 11:03:25;;;;;;;1.30;1.10;;;;;;;12.97;36.99;101495.81;5005500;28;20128;-71
2021/04/26 11:05:54;;;;;;;3.05;0.90;;;;;;;13.42;37.22;101498.84;5002024;28;20026;-71
2021/04/26 11:13:37;;;;;;;1.70;1.00;;;;;;;13.01;36.99;101487.78;4997590;28;20099;-72
2021/04/26 11:16:30;;;;;;;2.08;0.93;;;;;;;13.61;37.44;101484.56;4996898;28;20032;-72
2021/04/26 11:18:58;;;;;;;2.05;0.85;;;;;;;13.95;36.59;101478.34;4999922;28;20092;-71
2021/04/26 11:21:47;;;;;;;3.05;1.00;;;;;;;14.23;36.04;101472.66;4993386;28;20032;-72
2021/04/26 11:24:22;;;;;;;4.00;0.80;;;;;;;13.95;34.85;101472.91;5001482;28;20121;-71
2021/04/26 11:27:15;;;;;;;1.83;0.82;;;;;;;14.13;35.90;101473.25;5003720;28;20620;-71
2021/04/26 11:29:41;;;;;;;1.73;0.98;;;;;;;13.81;35.84;101467.22;4996077;28;20030;-72
2021/04/26 11:32:11;;;;;;;1.83;0.88;;;;;;;13.69;36.00;101463.84;4996895;28;20437;-71
2021/04/26 11:35:07;;;;;;;1.27;0.82;;;;;;;13.82;36.61;101460.63;5011236;28;20069;-72
2021/04/26 11:37:38;;;;;;;1.10;0.73;;;;;;;14.18;35.79;101457.50;4994743;28;20062;-72
2021/04/26 11:40:18;;;;;;;1.48;1.10;;;;;;;13.31;35.91;101449.16;4991591;28;20030;-72
2021/04/26 11:42:45;;;;;;;2.27;0.70;;;;;;;13.67;38.39;101450.66;4992527;28;20051;-71
2021/04/26 11:45:11;;;;;;;2.25;0.90;;;;;;;13.81;37.00;101448.25;4999958;28;20040;-71
2021/04/26 11:47:38;;;;;;;5.53;1.00;;;;;;;13.69;37.38;101448.38;4990967;28;20112;-71
2021/04/26 11:50:06;;;;;;;2.42;1.02;;;;;;;14.15;36.39;101444.66;4994104;28;20687;-71
2021/04/26 11:52:36;;;;;;;1.10;0.90;;;;;;;14.81;36.23;101447.00;5009076;28;20068;-72